sensor_id;sensor_type;location;lat;lon;timestamp;P1;durP1;ratioP1;P2;durP2;ratioP2
19404;SDS011;9838;49.384;8.292;2022-11-13T00:07:53;3.77;;;2.07;;
19404;SDS011;9838;49.384;8.292;2022-11-13T00:18:14;2.77;;;1.70;;
19404;SDS011;9838;49.384;8.292;2022-11-13T00:28:34;3.60;;;2.10;;
19404;SDS011;9838;49.384;8.292;2022-11-13T00:38:55;4.00;;;2.13;;
19404;SDS011;9838;49.384;8.292;2022-11-13T00:49:16;4.63;;;3.10;;
19404;SDS011;9838;49.384;8.292;2022-11-13T00:59:37;4.07;;;2.40;;
19404;SDS011;9838;49.384;8.292;2022-11-13T01:09:58;2.50;;;1.53;;
19404;SDS011;9838;49.384;8.292;2022-11-13T01:20:19;3.53;;;2.07;;
19404;SDS011;9838;49.384;8.292;2022-11-13T01:30:43;3.93;;;2.60;;
19404;SDS011;9838;49.384;8.292;2022-11-13T01:41:04;5.80;;;2.73;;
19404;SDS011;9838;49.384;8.292;2022-11-13T01:51:27;4.73;;;2.97;;
19404;SDS011;9838;49.384;8.292;2022-11-13T02:01:49;4.27;;;2.50;;
19404;SDS011;9838;49.384;8.292;2022-11-13T02:12:13;4.30;;;2.53;;
19404;SDS011;9838;49.384;8.292;2022-11-13T02:43:40;3.93;;;2.10;;
19404;SDS011;9838;49.384;8.292;2022-11-13T02:54:01;3.60;;;2.47;;
19404;SDS011;9838;49.384;8.292;2022-11-13T03:04:21;6.47;;;2.30;;
19404;SDS011;9838;49.384;8.292;2022-11-13T03:14:41;3.90;;;2.20;;
19404;SDS011;9838;49.384;8.292;2022-11-13T03:35:28;2.53;;;1.60;;
19404;SDS011;9838;49.384;8.292;2022-11-13T03:45:49;3.17;;;1.77;;
19404;SDS011;9838;49.384;8.292;2022-11-13T03:56:09;2.00;;;1.20;;
19404;SDS011;9838;49.384;8.292;2022-11-13T04:06:29;2.03;;;1.13;;
19404;SDS011;9838;49.384;8.292;2022-11-13T04:16:50;5.77;;;1.47;;
19404;SDS011;9838;49.384;8.292;2022-11-13T04:27:10;2.67;;;1.63;;
19404;SDS011;9838;49.384;8.292;2022-11-13T04:37:31;1.93;;;1.20;;
19404;SDS011;9838;49.384;8.292;2022-11-13T04:47:51;2.10;;;1.23;;
19404;SDS011;9838;49.384;8.292;2022-11-13T04:58:12;5.33;;;1.40;;
19404;SDS011;9838;49.384;8.292;2022-11-13T05:08:33;1.43;;;1.10;;
19404;SDS011;9838;49.384;8.292;2022-11-13T05:18:53;2.10;;;1.20;;
19404;SDS011;9838;49.384;8.292;2022-11-13T05:29:14;1.53;;;0.97;;
19404;SDS011;9838;49.384;8.292;2022-11-13T05:39:34;1.97;;;1.37;;
19404;SDS011;9838;49.384;8.292;2022-11-13T05:49:55;2.23;;;1.20;;
19404;SDS011;9838;49.384;8.292;2022-11-13T06:00:15;2.13;;;1.20;;
19404;SDS011;9838;49.384;8.292;2022-11-13T06:10:36;2.27;;;1.37;;
19404;SDS011;9838;49.384;8.292;2022-11-13T06:21:03;1.87;;;1.30;;
19404;SDS011;9838;49.384;8.292;2022-11-13T06:31:25;4.10;;;1.50;;
19404;SDS011;9838;49.384;8.292;2022-11-13T06:41:46;2.70;;;1.30;;
19404;SDS011;9838;49.384;8.292;2022-11-13T06:52:06;2.50;;;1.27;;
19404;SDS011;9838;49.384;8.292;2022-11-13T07:02:27;2.17;;;1.17;;
19404;SDS011;9838;49.384;8.292;2022-11-13T07:12:47;2.07;;;1.20;;
19404;SDS011;9838;49.384;8.292;2022-11-13T07:23:08;2.53;;;1.40;;
19404;SDS011;9838;49.384;8.292;2022-11-13T07:33:28;3.03;;;1.77;;
19404;SDS011;9838;49.384;8.292;2022-11-13T07:43:48;9.50;;;2.10;;
19404;SDS011;9838;49.384;8.292;2022-11-13T07:54:09;2.80;;;1.50;;
19404;SDS011;9838;49.384;8.292;2022-11-13T08:04:30;4.13;;;2.03;;
19404;SDS011;9838;49.384;8.292;2022-11-13T08:14:50;2.53;;;1.33;;
19404;SDS011;9838;49.384;8.292;2022-11-13T08:25:10;2.63;;;1.63;;
19404;SDS011;9838;49.384;8.292;2022-11-13T08:35:31;2.87;;;1.50;;
19404;SDS011;9838;49.384;8.292;2022-11-13T08:45:52;2.50;;;1.67;;
19404;SDS011;9838;49.384;8.292;2022-11-13T08:56:12;3.07;;;2.03;;
19404;SDS011;9838;49.384;8.292;2022-11-13T09:06:32;3.27;;;1.80;;
19404;SDS011;9838;49.384;8.292;2022-11-13T09:16:53;3.47;;;2.10;;
19404;SDS011;9838;49.384;8.292;2022-11-13T09:27:13;2.40;;;1.70;;
19404;SDS011;9838;49.384;8.292;2022-11-13T09:37:34;3.13;;;2.00;;
19404;SDS011;9838;49.384;8.292;2022-11-13T09:47:54;5.37;;;2.10;;
19404;SDS011;9838;49.384;8.292;2022-11-13T09:58:25;3.37;;;2.17;;
19404;SDS011;9838;49.384;8.292;2022-11-13T10:19:40;5.40;;;3.27;;
19404;SDS011;9838;49.384;8.292;2022-11-13T10:30:02;5.63;;;4.43;;
19404;SDS011;9838;49.384;8.292;2022-11-13T10:40:27;3.90;;;2.43;;
19404;SDS011;9838;49.384;8.292;2022-11-13T10:50:52;3.67;;;2.57;;
19404;SDS011;9838;49.384;8.292;2022-11-13T11:01:13;2.90;;;2.10;;
19404;SDS011;9838;49.384;8.292;2022-11-13T11:11:45;3.70;;;2.60;;
19404;SDS011;9838;49.384;8.292;2022-11-13T11:22:26;3.50;;;2.77;;
19404;SDS011;9838;49.384;8.292;2022-11-13T11:32:50;3.43;;;2.23;;
19404;SDS011;9838;49.384;8.292;2022-11-13T12:04:46;3.37;;;2.50;;
19404;SDS011;9838;49.384;8.292;2022-11-13T12:25:37;5.13;;;3.43;;
19404;SDS011;9838;49.384;8.292;2022-11-13T12:36:00;5.33;;;3.63;;
19404;SDS011;9838;49.384;8.292;2022-11-13T12:46:21;6.10;;;3.90;;
19404;SDS011;9838;49.384;8.292;2022-11-13T12:56:52;5.83;;;4.00;;
19404;SDS011;9838;49.384;8.292;2022-11-13T13:17:48;5.60;;;3.53;;
19404;SDS011;9838;49.384;8.292;2022-11-13T13:38:31;6.03;;;3.83;;
19404;SDS011;9838;49.384;8.292;2022-11-13T13:48:53;3.90;;;2.83;;
19404;SDS011;9838;49.384;8.292;2022-11-13T14:09:40;2.87;;;1.83;;
19404;SDS011;9838;49.384;8.292;2022-11-13T14:20:00;2.73;;;1.73;;
19404;SDS011;9838;49.384;8.292;2022-11-13T14:30:25;2.70;;;1.63;;
19404;SDS011;9838;49.384;8.292;2022-11-13T14:40:46;2.60;;;1.60;;
19404;SDS011;9838;49.384;8.292;2022-11-13T14:51:20;2.27;;;1.33;;
19404;SDS011;9838;49.384;8.292;2022-11-13T15:01:52;1.90;;;1.10;;
19404;SDS011;9838;49.384;8.292;2022-11-13T15:12:13;3.13;;;1.57;;
19404;SDS011;9838;49.384;8.292;2022-11-13T15:22:35;3.97;;;2.17;;
19404;SDS011;9838;49.384;8.292;2022-11-13T15:32:56;3.80;;;2.47;;
19404;SDS011;9838;49.384;8.292;2022-11-13T15:43:18;5.67;;;1.40;;
19404;SDS011;9838;49.384;8.292;2022-11-13T15:53:38;3.60;;;1.43;;
19404;SDS011;9838;49.384;8.292;2022-11-13T16:03:59;2.37;;;1.20;;
19404;SDS011;9838;49.384;8.292;2022-11-13T16:14:20;2.00;;;1.10;;
19404;SDS011;9838;49.384;8.292;2022-11-13T16:24:41;5.53;;;2.53;;
19404;SDS011;9838;49.384;8.292;2022-11-13T16:35:02;4.10;;;2.30;;
19404;SDS011;9838;49.384;8.292;2022-11-13T16:45:23;3.53;;;2.10;;
19404;SDS011;9838;49.384;8.292;2022-11-13T16:55:45;3.07;;;1.40;;
19404;SDS011;9838;49.384;8.292;2022-11-13T17:06:10;2.00;;;1.40;;
19404;SDS011;9838;49.384;8.292;2022-11-13T17:16:32;1.60;;;1.10;;
19404;SDS011;9838;49.384;8.292;2022-11-13T17:26:52;2.43;;;1.23;;
19404;SDS011;9838;49.384;8.292;2022-11-13T17:37:12;4.20;;;2.23;;
19404;SDS011;9838;49.384;8.292;2022-11-13T17:47:33;3.03;;;1.40;;
19404;SDS011;9838;49.384;8.292;2022-11-13T17:57:57;2.20;;;1.60;;
19404;SDS011;9838;49.384;8.292;2022-11-13T18:08:19;2.30;;;1.47;;
19404;SDS011;9838;49.384;8.292;2022-11-13T18:18:39;2.00;;;1.20;;
19404;SDS011;9838;49.384;8.292;2022-11-13T18:29:00;3.07;;;1.93;;
19404;SDS011;9838;49.384;8.292;2022-11-13T18:39:20;2.10;;;1.40;;
19404;SDS011;9838;49.384;8.292;2022-11-13T18:49:41;2.00;;;1.37;;
19404;SDS011;9838;49.384;8.292;2022-11-13T19:00:01;4.30;;;1.30;;
19404;SDS011;9838;49.384;8.292;2022-11-13T19:10:22;1.70;;;1.10;;
19404;SDS011;9838;49.384;8.292;2022-11-13T19:20:43;3.30;;;1.40;;
19404;SDS011;9838;49.384;8.292;2022-11-13T19:31:07;3.57;;;2.30;;
19404;SDS011;9838;49.384;8.292;2022-11-13T19:41:34;2.90;;;1.20;;
19404;SDS011;9838;49.384;8.292;2022-11-13T19:51:55;1.90;;;1.10;;
19404;SDS011;9838;49.384;8.292;2022-11-13T20:02:16;1.80;;;1.17;;
19404;SDS011;9838;49.384;8.292;2022-11-13T20:12:36;2.50;;;1.50;;
19404;SDS011;9838;49.384;8.292;2022-11-13T20:22:57;3.53;;;1.97;;
19404;SDS011;9838;49.384;8.292;2022-11-13T20:33:17;3.83;;;1.90;;
19404;SDS011;9838;49.384;8.292;2022-11-13T20:43:37;3.07;;;1.93;;
19404;SDS011;9838;49.384;8.292;2022-11-13T20:53:58;2.43;;;1.60;;
19404;SDS011;9838;49.384;8.292;2022-11-13T21:04:19;1.90;;;1.20;;
19404;SDS011;9838;49.384;8.292;2022-11-13T21:14:39;1.80;;;1.23;;
19404;SDS011;9838;49.384;8.292;2022-11-13T21:25:00;1.93;;;1.50;;
19404;SDS011;9838;49.384;8.292;2022-11-13T21:35:20;4.03;;;1.83;;
19404;SDS011;9838;49.384;8.292;2022-11-13T21:45:41;2.90;;;1.70;;
19404;SDS011;9838;49.384;8.292;2022-11-13T21:56:01;4.27;;;2.20;;
19404;SDS011;9838;49.384;8.292;2022-11-13T22:06:31;4.53;;;2.27;;
19404;SDS011;9838;49.384;8.292;2022-11-13T22:16:52;4.87;;;3.50;;
19404;SDS011;9838;49.384;8.292;2022-11-13T22:27:12;6.33;;;3.30;;
19404;SDS011;9838;49.384;8.292;2022-11-13T22:37:33;4.60;;;2.43;;
19404;SDS011;9838;49.384;8.292;2022-11-13T22:47:53;7.30;;;3.80;;
19404;SDS011;9838;49.384;8.292;2022-11-13T22:58:14;6.80;;;3.90;;
19404;SDS011;9838;49.384;8.292;2022-11-13T23:08:34;6.43;;;3.73;;
19404;SDS011;9838;49.384;8.292;2022-11-13T23:18:58;5.20;;;3.63;;
19404;SDS011;9838;49.384;8.292;2022-11-13T23:29:18;5.00;;;2.87;;
19404;SDS011;9838;49.384;8.292;2022-11-13T23:39:39;4.83;;;2.97;;
19404;SDS011;9838;49.384;8.292;2022-11-13T23:49:59;6.33;;;3.90;;
